Time;durP1;ratioP1;P1;durP2;ratioP2;P2;SDS_P1;SDS_P2;PMS_P1;PMS_P2;Temp;Humidity;BMP_temperature;BMP_pressure;BME280_temperature;BME280_humidity;BME280_pressure;Samples;Min_cycle;Max_cycle;Signal;HPM_P1;HPM_P2
2023/07/03 00:02:14;;;;;;;13.00;6.68;;;16.80;99.90;;;;;;5023278;28;20053;-64
2023/07/03 00:04:45;;;;;;;10.52;5.90;;;16.80;99.90;;;;;;5034033;28;20049;-63
2023/07/03 00:07:16;;;;;;;10.65;5.85;;;16.80;99.90;;;;;;5024804;28;20529;-63
2023/07/03 00:09:43;;;;;;;10.00;6.15;;;16.80;99.90;;;;;;5026100;28;20393;-62
2023/07/03 00:12:11;;;;;;;12.05;6.85;;;16.80;99.90;;;;;;5028424;28;20056;-63
2023/07/03 00:14:38;;;;;;;13.88;6.70;;;16.80;99.90;;;;;;5023175;28;20064;-63
2023/07/03 00:17:09;;;;;;;11.35;5.70;;;16.80;99.90;;;;;;5025900;28;20514;-63
2023/07/03 00:19:36;;;;;;;12.77;6.07;;;16.70;99.90;;;;;;5024022;28;20050;-62
2023/07/03 00:22:03;;;;;;;9.75;6.07;;;16.60;99.90;;;;;;5024380;28;20374;-63
2023/07/03 00:24:31;;;;;;;11.77;6.38;;;16.60;99.90;;;;;;5025260;28;20052;-62
2023/07/03 00:26:58;;;;;;;10.73;5.93;;;16.50;99.90;;;;;;5026496;28;20049;-63
2023/07/03 00:29:30;;;;;;;11.27;6.55;;;16.50;99.90;;;;;;5013064;28;20130;-63
2023/07/03 00:31:58;;;;;;;12.43;6.13;;;16.50;99.90;;;;;;5026576;28;20052;-62
2023/07/03 00:34:26;;;;;;;11.15;6.97;;;16.50;99.90;;;;;;5015966;28;20149;-63
2023/07/03 00:36:54;;;;;;;11.10;6.70;;;16.50;99.90;;;;;;5012832;28;20046;-63
2023/07/03 00:39:21;;;;;;;12.40;6.50;;;16.50;99.90;;;;;;5008049;28;20053;-63
2023/07/03 00:41:48;;;;;;;12.85;6.38;;;16.50;99.90;;;;;;5012008;28;20050;-63
2023/07/03 00:44:17;;;;;;;11.23;6.30;;;16.50;99.90;;;;;;5022044;28;20038;-63
2023/07/03 00:46:48;;;;;;;11.15;6.65;;;16.50;99.90;;;;;;5030664;28;20045;-63
2023/07/03 00:49:17;;;;;;;13.23;6.28;;;16.50;99.90;;;;;;5033075;28;20037;-62
2023/07/03 00:51:55;;;;;;;12.98;6.10;;;16.40;99.90;;;;;;5023494;28;20425;-63
2023/07/03 00:54:24;;;;;;;10.07;5.57;;;16.30;99.90;;;;;;5028540;28;20064;-63
2023/07/03 00:56:51;;;;;;;11.93;6.95;;;16.30;99.90;;;;;;5014608;28;20060;-63
2023/07/03 00:59:18;;;;;;;12.10;6.50;;;16.30;99.90;;;;;;5020807;28;20049;-63
2023/07/03 01:02:18;;;;;;;16.73;7.40;;;16.30;99.90;;;;;;5032412;28;20046;-63
2023/07/03 01:04:57;;;;;;;10.02;6.07;;;16.20;99.90;;;;;;5020422;28;20115;-63
2023/07/03 01:07:35;;;;;;;19.30;7.03;;;16.30;99.90;;;;;;5033618;28;20124;-63
2023/07/03 01:10:06;;;;;;;12.88;7.03;;;16.30;99.90;;;;;;5011905;28;20038;-63
2023/07/03 01:12:38;;;;;;;10.70;6.15;;;16.30;99.90;;;;;;5029404;28;20044;-63
2023/07/03 01:15:08;;;;;;;12.52;6.93;;;16.30;99.90;;;;;;5025003;28;20116;-63
2023/07/03 01:17:38;;;;;;;16.98;6.88;;;16.30;99.90;;;;;;5032961;28;20033;-63
2023/07/03 01:20:06;;;;;;;15.25;6.47;;;16.30;99.90;;;;;;5031471;28;20398;-63
2023/07/03 01:22:44;;;;;;;12.40;7.25;;;16.30;99.90;;;;;;5005365;28;20429;-62
2023/07/03 01:25:16;;;;;;;12.00;6.65;;;16.20;99.90;;;;;;5025789;28;20049;-63
2023/07/03 01:27:45;;;;;;;13.70;6.88;;;16.10;99.90;;;;;;5022584;28;20508;-63
2023/07/03 01:30:15;;;;;;;12.68;6.68;;;16.10;99.90;;;;;;5014898;28;20048;-63
2023/07/03 01:32:44;;;;;;;10.73;6.53;;;16.00;99.90;;;;;;5024246;28;20050;-63
2023/07/03 01:35:14;;;;;;;13.20;7.32;;;16.00;99.90;;;;;;5022613;28;20047;-63
2023/07/03 01:37:47;;;;;;;16.25;6.97;;;16.00;99.90;;;;;;5024703;28;20128;-63
2023/07/03 01:40:17;;;;;;;13.85;6.88;;;16.00;99.90;;;;;;5013820;28;20119;-63
2023/07/03 01:42:45;;;;;;;13.23;7.00;;;16.00;99.90;;;;;;5006832;28;20438;-62
2023/07/03 01:45:13;;;;;;;11.57;7.10;;;16.10;99.90;;;;;;5031118;28;20054;-63
2023/07/03 01:47:40;;;;;;;16.10;6.93;;;16.20;99.90;;;;;;5030525;28;20548;-62
2023/07/03 01:50:12;;;;;;;13.95;7.60;;;16.20;99.90;;;;;;5020481;28;20109;-63
2023/07/03 01:52:41;;;;;;;14.93;7.80;;;16.20;99.90;;;;;;5027720;28;20042;-63
2023/07/03 01:55:50;;;;;;;14.93;7.63;;;16.20;99.90;;;;;;5009525;28;20041;-63
2023/07/03 01:58:36;;;;;;;13.40;7.40;;;16.30;99.90;;;;;;4980927;28;20512;-63
2023/07/03 02:01:06;;;;;;;11.85;6.60;;;16.30;99.90;;;;;;5014098;28;20049;-63
2023/07/03 02:04:02;;;;;;;15.82;6.88;;;16.30;99.90;;;;;;5032065;28;20448;-63
2023/07/03 02:06:39;;;;;;;14.23;6.93;;;16.30;99.90;;;;;;5028412;28;20065;-63
2023/07/03 02:09:07;;;;;;;12.30;7.72;;;16.30;99.90;;;;;;5019515;28;20038;-63
2023/07/03 02:11:38;;;;;;;12.15;6.40;;;16.30;99.90;;;;;;5010391;28;20045;-63
2023/07/03 02:14:08;;;;;;;11.27;6.82;;;16.30;99.90;;;;;;5004613;28;20049;-63
2023/07/03 02:16:35;;;;;;;12.50;7.13;;;16.40;99.90;;;;;;5013698;28;20052;-63
2023/07/03 02:19:02;;;;;;;13.23;7.82;;;16.30;99.90;;;;;;5004809;28;20498;-62
2023/07/03 02:21:29;;;;;;;13.85;7.85;;;16.30;99.90;;;;;;5023378;28;20399;-63
2023/07/03 02:23:56;;;;;;;12.95;7.40;;;16.30;99.90;;;;;;5011623;28;20056;-63
2023/07/03 02:26:22;;;;;;;13.00;7.22;;;16.30;99.90;;;;;;5005919;28;20042;-63
2023/07/03 02:28:50;;;;;;;11.65;6.95;;;16.20;99.90;;;;;;5021586;28;20199;-63
2023/07/03 02:31:16;;;;;;;13.20;6.80;;;16.20;99.90;;;;;;5031494;28;20494;-63
2023/07/03 02:33:43;;;;;;;14.38;7.53;;;16.10;99.90;;;;;;5016521;28;20045;-63
2023/07/03 02:36:10;;;;;;;12.90;6.75;;;16.00;99.90;;;;;;5028975;28;20061;-63
2023/07/03 02:38:37;;;;;;;12.50;7.07;;;16.00;99.90;;;;;;5012775;28;20441;-63
2023/07/03 02:41:03;;;;;;;12.43;7.35;;;15.90;99.90;;;;;;5015213;28;20038;-63
2023/07/03 02:43:33;;;;;;;13.43;8.27;;;15.90;99.90;;;;;;5021500;28;20097;-62
2023/07/03 02:46:04;;;;;;;16.63;8.65;;;15.90;99.90;;;;;;5028799;28;20069;-63
2023/07/03 02:48:31;;;;;;;14.93;8.02;;;15.90;99.90;;;;;;5028570;28;20458;-63
2023/07/03 02:50:58;;;;;;;;;;;15.90;99.90;;;;;;5011083;28;20037;-63
2023/07/03 02:53:25;;;;;;;14.45;7.63;;;15.90;99.90;;;;;;5007497;28;19921;-63
2023/07/03 02:55:59;;;;;;;12.52;7.15;;;15.90;99.90;;;;;;5012461;28;20046;-63
2023/07/03 02:58:26;;;;;;;15.23;8.13;;;15.80;99.90;;;;;;5011783;28;20521;-63
2023/07/03 03:00:54;;;;;;;15.73;7.93;;;15.80;99.90;;;;;;5003986;28;20044;-63
2023/07/03 03:03:21;;;;;;;16.90;8.43;;;15.70;99.90;;;;;;5029889;28;20404;-62
2023/07/03 03:05:48;;;;;;;15.82;8.20;;;15.70;99.90;;;;;;4996614;28;20417;-63
2023/07/03 03:08:15;;;;;;;;;;;15.80;99.90;;;;;;5030848;28;20040;-62
2023/07/03 03:10:43;;;;;;;15.30;7.43;;;15.80;99.90;;;;;;5012990;28;19944;-63
2023/07/03 03:13:09;;;;;;;;;;;15.90;99.90;;;;;;5025557;28;20397;-63
2023/07/03 03:15:36;;;;;;;18.15;8.48;;;15.90;99.90;;;;;;5008652;28;19928;-63
2023/07/03 03:18:03;;;;;;;12.70;8.10;;;15.90;99.90;;;;;;5011973;28;20049;-61
2023/07/03 03:20:30;;;;;;;;;;;15.90;99.90;;;;;;5010614;28;20096;-63
2023/07/03 03:22:57;;;;;;;11.80;7.15;;;15.90;99.90;;;;;;5027681;28;20370;-63
2023/07/03 03:25:24;;;;;;;15.98;9.13;;;16.00;99.90;;;;;;5027848;28;20041;-63
2023/07/03 03:27:51;;;;;;;15.75;8.13;;;16.00;99.90;;;;;;5011972;28;20654;-63
2023/07/03 03:30:18;;;;;;;17.55;9.05;;;16.10;99.90;;;;;;5006137;28;20681;-63
2023/07/03 03:32:46;;;;;;;16.83;8.77;;;16.10;99.90;;;;;;5020004;28;20133;-63
2023/07/03 03:35:13;;;;;;;16.85;9.68;;;16.10;99.90;;;;;;5004643;28;20092;-63
2023/07/03 03:37:40;;;;;;;19.58;8.40;;;16.10;99.90;;;;;;5012011;28;20137;-63
2023/07/03 03:40:09;;;;;;;18.75;9.27;;;16.10;99.90;;;;;;5016866;28;20056;-63
2023/07/03 03:42:37;;;;;;;17.63;9.10;;;16.10;99.90;;;;;;5024103;28;20041;-62
2023/07/03 03:45:04;;;;;;;15.63;8.18;;;16.20;99.90;;;;;;5007897;28;20046;-63
2023/07/03 03:47:32;;;;;;;16.80;8.43;;;16.20;99.90;;;;;;5033215;28;20091;-62
2023/07/03 03:50:00;;;;;;;16.67;8.68;;;16.20;99.90;;;;;;5023547;28;20050;-63
2023/07/03 03:52:30;;;;;;;16.88;9.48;;;16.20;99.90;;;;;;5032433;28;20072;-63
2023/07/03 03:54:56;;;;;;;13.23;8.07;;;16.20;99.90;;;;;;5032413;28;20049;-63
2023/07/03 03:57:23;;;;;;;;;;;16.20;99.90;;;;;;5015918;28;20497;-63
2023/07/03 03:59:50;;;;;;;15.45;8.77;;;16.20;99.90;;;;;;5024572;28;19928;-63
2023/07/03 04:02:17;;;;;;;16.55;8.48;;;16.20;99.90;;;;;;5032847;28;20041;-63
2023/07/03 04:04:44;;;;;;;17.10;9.23;;;16.20;99.90;;;;;;5015479;28;20494;-63
2023/07/03 04:07:11;;;;;;;20.83;9.18;;;16.30;99.90;;;;;;5020163;28;20038;-63
2023/07/03 04:09:38;;;;;;;19.63;9.88;;;16.30;99.90;;;;;;5025950;28;20038;-63
2023/07/03 04:12:05;;;;;;;17.70;9.50;;;16.40;99.90;;;;;;5021920;28;20048;-62
2023/07/03 04:14:32;;;;;;;;;;;16.40;99.90;;;;;;5020601;28;20048;-62
2023/07/03 04:17:00;;;;;;;16.77;9.32;;;16.40;99.90;;;;;;5032935;28;19932;-63
2023/07/03 04:19:28;;;;;;;16.33;8.90;;;16.30;99.90;;;;;;5016031;28;20120;-63
2023/07/03 04:21:55;;;;;;;16.92;9.38;;;16.30;99.90;;;;;;5024640;28;20405;-63
2023/07/03 04:24:22;;;;;;;17.27;9.18;;;16.30;99.90;;;;;;5032559;28;20049;-63
2023/07/03 04:26:48;;;;;;;17.90;9.55;;;16.40;99.90;;;;;;5033309;28;20033;-63
2023/07/03 04:29:15;;;;;;;17.05;9.30;;;16.50;99.90;;;;;;5018000;28;20044;-63
2023/07/03 04:31:42;;;;;;;18.60;9.07;;;16.50;99.90;;;;;;5025708;28;20044;-63
2023/07/03 04:34:09;;;;;;;15.48;8.45;;;16.50;99.90;;;;;;5032345;28;20052;-62
2023/07/03 04:36:36;;;;;;;18.55;9.10;;;16.60;99.90;;;;;;5019691;28;20050;-62
2023/07/03 04:39:02;;;;;;;20.55;11.65;;;16.70;99.90;;;;;;5023715;28;20045;-62
2023/07/03 04:41:29;;;;;;;16.70;9.43;;;16.70;99.90;;;;;;5032969;28;20097;-62
2023/07/03 04:43:58;;;;;;;17.33;9.57;;;16.70;99.90;;;;;;5029984;28;20093;-62
2023/07/03 04:46:26;;;;;;;17.92;9.32;;;16.70;99.90;;;;;;5023708;28;20059;-62
2023/07/03 04:48:59;;;;;;;17.65;9.73;;;16.70;99.90;;;;;;5031497;28;20128;-63
2023/07/03 04:51:30;;;;;;;17.88;9.27;;;16.70;99.90;;;;;;5031997;28;20044;-62
2023/07/03 04:53:58;;;;;;;16.50;9.50;;;16.80;99.90;;;;;;5022794;28;20116;-62
2023/07/03 04:56:26;;;;;;;18.17;9.30;;;16.80;99.90;;;;;;5033217;28;20067;-62
2023/07/03 04:58:53;;;;;;;17.58;9.25;;;16.90;99.90;;;;;;5031563;28;20116;-62
2023/07/03 05:01:20;;;;;;;17.65;9.88;;;16.90;99.90;;;;;;5031262;28;20041;-62
2023/07/03 05:03:46;;;;;;;17.95;9.57;;;17.00;99.90;;;;;;5032146;28;20045;-62
2023/07/03 05:06:13;;;;;;;18.35;10.18;;;16.90;99.90;;;;;;5028464;28;20128;-62
2023/07/03 05:08:40;;;;;;;18.40;9.68;;;16.90;99.90;;;;;;5028873;28;20048;-62
2023/07/03 05:11:07;;;;;;;18.55;10.90;;;16.90;99.90;;;;;;5032432;28;20132;-62
2023/07/03 05:13:34;;;;;;;18.38;9.23;;;16.90;99.90;;;;;;5033166;28;20037;-62
2023/07/03 05:16:01;;;;;;;21.10;10.05;;;16.90;99.90;;;;;;5033006;28;20059;-62
2023/07/03 05:18:28;;;;;;;20.42;9.60;;;16.90;99.90;;;;;;5022449;28;20121;-62
2023/07/03 05:20:54;;;;;;;19.08;9.85;;;17.00;99.90;;;;;;5011657;28;20054;-62
2023/07/03 05:23:21;;;;;;;23.08;9.30;;;17.00;99.90;;;;;;5033072;28;20041;-62
2023/07/03 05:25:48;;;;;;;16.15;9.45;;;17.10;99.90;;;;;;5031454;28;20049;-62
2023/07/03 05:28:15;;;;;;;;;;;17.10;99.90;;;;;;5018548;28;20045;-62
2023/07/03 05:30:42;;;;;;;17.25;10.75;;;17.10;99.90;;;;;;5023587;28;19925;-63
2023/07/03 05:33:10;;;;;;;20.20;10.85;;;17.10;99.90;;;;;;5031263;28;20084;-62
2023/07/03 05:35:38;;;;;;;19.88;9.88;;;17.20;99.90;;;;;;5032045;28;20592;-63
2023/07/03 05:38:16;;;;;;;17.02;8.93;;;17.20;99.90;;;;;;5021556;28;20053;-63
2023/07/03 05:40:44;;;;;;;17.17;9.35;;;17.20;99.90;;;;;;4998439;28;20048;-62
2023/07/03 05:43:11;;;;;;;20.77;9.80;;;17.30;99.90;;;;;;5021879;28;20045;-63
2023/07/03 05:45:37;;;;;;;;;;;17.40;99.90;;;;;;5021015;28;20046;-63
2023/07/03 05:48:04;;;;;;;15.52;8.75;;;17.40;99.90;;;;;;5012734;28;19932;-63
2023/07/03 05:50:31;;;;;;;15.77;9.27;;;17.50;99.90;;;;;;5030076;28;20119;-62
2023/07/03 05:52:58;;;;;;;17.08;9.93;;;17.50;99.90;;;;;;5027204;28;20045;-63
2023/07/03 05:55:25;;;;;;;18.75;9.13;;;17.60;99.90;;;;;;5026578;28;20096;-63
2023/07/03 05:57:52;;;;;;;18.27;9.80;;;17.70;99.90;;;;;;5026074;28;20055;-62
2023/07/03 06:00:19;;;;;;;17.30;9.40;;;17.80;99.90;;;;;;5030776;28;20037;-62
2023/07/03 06:02:47;;;;;;;15.50;9.35;;;17.80;99.90;;;;;;5022583;28;20058;-63
2023/07/03 06:05:15;;;;;;;16.73;9.68;;;17.90;99.90;;;;;;5025245;28;20139;-63
2023/07/03 06:07:42;;;;;;;17.45;9.82;;;17.90;99.90;;;;;;5031965;28;20045;-63
2023/07/03 06:10:10;;;;;;;18.83;9.48;;;18.00;99.90;;;;;;5031084;28;20049;-63
2023/07/03 06:12:37;;;;;;;16.77;9.48;;;18.00;99.90;;;;;;5017819;28;20191;-63
2023/07/03 06:15:05;;;;;;;16.52;9.43;;;18.10;99.90;;;;;;5020413;28;20046;-63
2023/07/03 06:17:31;;;;;;;;;;;18.20;99.90;;;;;;5031095;28;20041;-62
2023/07/03 06:19:58;;;;;;;19.30;10.23;;;18.10;99.90;;;;;;5031172;28;19972;-63
2023/07/03 06:22:26;;;;;;;19.00;9.73;;;18.30;99.90;;;;;;5015519;28;20033;-63
2023/07/03 06:24:52;;;;;;;15.73;9.18;;;18.20;99.90;;;;;;5022824;28;20037;-63
2023/07/03 06:27:19;;;;;;;14.55;8.95;;;18.20;99.90;;;;;;5025103;28;20060;-62
2023/07/03 06:29:46;;;;;;;16.02;9.35;;;18.10;99.90;;;;;;5029929;28;20566;-63
2023/07/03 06:32:13;;;;;;;17.25;9.43;;;18.10;99.90;;;;;;5030028;28;20420;-63
2023/07/03 06:34:40;;;;;;;18.35;8.98;;;18.00;99.90;;;;;;5028563;28;20407;-63
2023/07/03 06:37:06;;;;;;;18.38;9.85;;;18.00;99.90;;;;;;5029578;28;20047;-63
2023/07/03 06:39:33;;;;;;;18.45;9.23;;;18.00;99.90;;;;;;5028757;28;20129;-63
2023/07/03 06:42:02;;;;;;;22.33;9.85;;;17.90;99.90;;;;;;5023497;28;20037;-63
2023/07/03 06:44:29;;;;;;;16.30;9.20;;;17.90;99.90;;;;;;5029561;28;20044;-62
2023/07/03 06:46:56;;;;;;;17.73;9.88;;;17.90;99.90;;;;;;5029259;28;20050;-63
2023/07/03 06:49:24;;;;;;;25.60;10.90;;;18.00;99.90;;;;;;5030251;28;20517;-62
2023/07/03 06:51:52;;;;;;;18.65;10.13;;;18.00;99.90;;;;;;5030233;28;20096;-63
2023/07/03 06:54:19;;;;;;;18.55;10.35;;;18.10;99.90;;;;;;5029547;28;20045;-63
2023/07/03 06:56:46;;;;;;;15.73;9.68;;;18.20;99.90;;;;;;5029965;28;20048;-63
2023/07/03 06:59:13;;;;;;;16.33;9.65;;;18.40;99.90;;;;;;5028811;28;20140;-63
2023/07/03 07:01:40;;;;;;;15.27;9.35;;;18.40;99.90;;;;;;5029650;28;20041;-63
2023/07/03 07:04:07;;;;;;;17.35;10.10;;;18.60;99.90;;;;;;5022171;28;20069;-63
2023/07/03 07:06:34;;;;;;;18.98;10.95;;;18.60;99.90;;;;;;5019977;28;20034;-63
2023/07/03 07:09:03;;;;;;;23.92;9.63;;;18.70;99.90;;;;;;5030434;28;20040;-63
2023/07/03 07:11:33;;;;;;;20.40;9.82;;;18.90;99.90;;;;;;5034234;28;20132;-63
2023/07/03 07:14:02;;;;;;;19.98;10.25;;;18.90;99.90;;;;;;5028912;28;20037;-63
2023/07/03 07:16:31;;;;;;;17.35;9.88;;;18.90;99.90;;;;;;5035305;28;20044;-63
2023/07/03 07:19:01;;;;;;;17.45;9.18;;;19.00;99.90;;;;;;5037559;28;20413;-63
2023/07/03 07:21:32;;;;;;;18.90;9.98;;;19.00;99.90;;;;;;5036144;28;20041;-63
2023/07/03 07:24:03;;;;;;;19.17;10.02;;;19.10;99.90;;;;;;5029954;28;20038;-63
2023/07/03 07:26:33;;;;;;;18.35;9.60;;;19.20;99.90;;;;;;5032661;28;20042;-63
2023/07/03 07:29:01;;;;;;;19.42;10.02;;;19.20;99.90;;;;;;5029932;28;20046;-63
2023/07/03 07:31:28;;;;;;;20.20;10.40;;;19.10;99.90;;;;;;5029752;28;20035;-63
2023/07/03 07:33:56;;;;;;;24.25;17.42;;;19.00;99.90;;;;;;5025210;28;20128;-63
2023/07/03 07:36:24;;;;;;;16.73;10.07;;;19.00;99.90;;;;;;5030328;28;20060;-63
2023/07/03 07:38:52;;;;;;;21.13;10.32;;;19.10;99.90;;;;;;5025110;28;20042;-63
2023/07/03 07:41:24;;;;;;;19.98;10.18;;;19.10;99.90;;;;;;5032771;28;20153;-63
2023/07/03 07:43:53;;;;;;;21.58;10.40;;;19.10;99.90;;;;;;5025859;28;20517;-63
2023/07/03 07:46:25;;;;;;;18.67;10.73;;;19.20;99.90;;;;;;5035172;28;20053;-63
2023/07/03 07:48:52;;;;;;;16.92;9.80;;;19.20;99.90;;;;;;5038047;28;20096;-63
2023/07/03 07:51:19;;;;;;;18.35;9.18;;;19.20;99.90;;;;;;5036032;28;20049;-63
2023/07/03 07:53:45;;;;;;;17.42;9.77;;;19.30;99.90;;;;;;5036872;28;20045;-63
2023/07/03 07:56:13;;;;;;;19.90;10.52;;;19.30;99.90;;;;;;5036108;28;20048;-63
2023/07/03 07:58:40;;;;;;;18.10;9.65;;;19.40;99.90;;;;;;5034553;28;20049;-63
2023/07/03 08:01:10;;;;;;;23.08;11.10;;;19.50;99.90;;;;;;5036376;28;20041;-63
2023/07/03 08:03:40;;;;;;;20.13;10.23;;;19.70;99.90;;;;;;5035705;28;20048;-63
2023/07/03 08:06:09;;;;;;;18.17;9.85;;;19.80;99.90;;;;;;5035526;28;20053;-63
2023/07/03 08:08:36;;;;;;;16.35;9.60;;;19.90;99.90;;;;;;5033969;28;20049;-63
2023/07/03 08:11:06;;;;;;;20.75;10.40;;;20.10;99.90;;;;;;5027684;28;20052;-63
2023/07/03 08:13:34;;;;;;;17.02;9.88;;;20.30;99.90;;;;;;5036183;28;20056;-63
2023/07/03 08:16:01;;;;;;;22.33;10.55;;;20.50;99.90;;;;;;5034809;28;20053;-63
2023/07/03 08:18:28;;;;;;;18.75;10.18;;;20.60;99.90;;;;;;5036983;28;20172;-63
2023/07/03 08:20:55;;;;;;;17.00;10.43;;;20.80;99.90;;;;;;5036322;28;20041;-64
2023/07/03 08:23:22;;;;;;;20.73;9.38;;;20.80;99.90;;;;;;5032679;28;20041;-63
2023/07/03 08:25:50;;;;;;;;;;;20.80;99.90;;;;;;5032230;28;20033;-63
2023/07/03 08:28:21;;;;;;;17.23;9.38;;;20.80;99.90;;;;;;5032145;28;19983;-63
2023/07/03 08:30:48;;;;;;;17.02;9.93;;;20.80;99.90;;;;;;5032927;28;20037;-63
2023/07/03 08:33:15;;;;;;;16.42;9.70;;;20.80;99.90;;;;;;5032819;28;20450;-68
2023/07/03 08:35:43;;;;;;;17.13;9.68;;;20.80;99.90;;;;;;5031480;28;20065;-63
2023/07/03 08:38:13;;;;;;;27.45;10.10;;;20.80;99.90;;;;;;5029639;28;20037;-63
2023/07/03 08:40:42;;;;;;;21.33;9.80;;;21.10;99.90;;;;;;5032252;28;20116;-63
2023/07/03 08:43:16;;;;;;;18.52;9.60;;;21.20;99.90;;;;;;5030893;28;20072;-63
2023/07/03 08:45:45;;;;;;;16.90;9.73;;;21.30;99.90;;;;;;5030202;28;20041;-63
2023/07/03 08:48:16;;;;;;;21.95;10.05;;;21.50;99.90;;;;;;5033316;28;20037;-63
2023/07/03 08:50:46;;;;;;;21.23;10.40;;;21.60;99.90;;;;;;5024695;28;20041;-63
2023/07/03 08:53:18;;;;;;;21.92;9.68;;;21.70;99.90;;;;;;5030414;28;20132;-63
2023/07/03 08:55:55;;;;;;;17.58;10.30;;;21.80;99.90;;;;;;5025351;28;20051;-63
2023/07/03 08:58:22;;;;;;;19.02;9.90;;;21.80;99.90;;;;;;5018452;28;20514;-63
2023/07/03 09:01:20;;;;;;;19.17;10.25;;;21.90;99.90;;;;;;5024798;28;20041;-63
2023/07/03 09:03:57;;;;;;;23.70;10.70;;;21.90;99.90;;;;;;5029798;28;20064;-63
2023/07/03 09:06:41;;;;;;;20.02;9.70;;;21.90;99.90;;;;;;5018201;28;20478;-63
2023/07/03 09:09:29;;;;;;;17.38;9.20;;;21.90;99.90;;;;;;5032938;28;20037;-63
2023/07/03 09:12:01;;;;;;;22.70;9.57;;;22.00;99.90;;;;;;5021893;28;20041;-63
2023/07/03 09:14:35;;;;;;;20.95;10.10;;;22.00;99.90;;;;;;5020269;28;20509;-63
2023/07/03 09:17:03;;;;;;;18.80;9.30;;;22.10;99.90;;;;;;5024942;28;20521;-63
2023/07/03 09:19:30;;;;;;;18.13;9.52;;;22.20;99.90;;;;;;5027334;28;20033;-63
2023/07/03 09:22:02;;;;;;;19.15;9.63;;;22.20;99.90;;;;;;5032047;28;20048;-63
2023/07/03 09:24:35;;;;;;;19.38;10.05;;;22.20;99.90;;;;;;5030130;28;20043;-63
2023/07/03 09:27:12;;;;;;;20.92;9.57;;;22.20;99.90;;;;;;5027809;28;20044;-63
2023/07/03 09:29:41;;;;;;;19.85;9.10;;;22.10;99.90;;;;;;5024054;28;20490;-63
2023/07/03 09:32:10;;;;;;;20.42;9.10;;;22.10;99.90;;;;;;5030534;28;20049;-63
2023/07/03 09:34:57;;;;;;;17.65;9.27;;;22.10;99.90;;;;;;5013524;28;20045;-63
2023/07/03 09:37:23;;;;;;;16.63;7.63;;;22.10;99.90;;;;;;5031354;28;20042;-63
2023/07/03 09:39:54;;;;;;;14.43;8.55;;;22.30;99.90;;;;;;5020424;28;20076;-63
2023/07/03 09:42:22;;;;;;;14.77;8.18;;;22.30;99.90;;;;;;5028031;28;20046;-63
2023/07/03 09:44:50;;;;;;;18.08;8.35;;;22.30;99.90;;;;;;5024504;28;20605;-63
2023/07/03 09:47:24;;;;;;;16.13;8.55;;;22.30;99.90;;;;;;5031205;28;20041;-63
2023/07/03 09:49:53;;;;;;;15.70;7.95;;;22.30;99.90;;;;;;5032293;28;20049;-63
2023/07/03 09:52:21;;;;;;;19.88;8.20;;;22.40;99.90;;;;;;5023600;28;20568;-63
2023/07/03 09:54:49;;;;;;;12.90;7.25;;;22.40;99.90;;;;;;5030958;28;20033;-63
2023/07/03 09:57:24;;;;;;;18.13;8.88;;;22.60;99.90;;;;;;5029500;28;20490;-63
2023/07/03 09:59:53;;;;;;;17.95;7.75;;;22.70;99.90;;;;;;5030537;28;20038;-63
2023/07/03 10:02:22;;;;;;;17.52;7.72;;;22.70;99.90;;;;;;5030885;28;20136;-63
2023/07/03 10:04:51;;;;;;;15.95;7.80;;;22.80;99.90;;;;;;5031290;28;20036;-63
2023/07/03 10:07:22;;;;;;;18.60;8.43;;;22.80;99.90;;;;;;5031605;28;20029;-63
2023/07/03 10:09:50;;;;;;;15.30;7.60;;;22.90;99.90;;;;;;5029784;28;20048;-63
2023/07/03 10:12:41;;;;;;;15.02;7.78;;;22.90;99.90;;;;;;5028865;28;20021;-63
2023/07/03 10:15:10;;;;;;;13.32;7.72;;;22.90;99.90;;;;;;5031370;28;20077;-63
2023/07/03 10:17:48;;;;;;;15.00;7.78;;;22.90;99.90;;;;;;5028226;28;20042;-63
2023/07/03 10:20:20;;;;;;;;;;;22.90;99.90;;;;;;5031930;28;20069;-63
2023/07/03 10:22:51;;;;;;;16.25;8.25;;;22.90;99.90;;;;;;5029743;28;19927;-63
2023/07/03 10:25:22;;;;;;;17.33;8.30;;;22.90;99.90;;;;;;5027694;28;20037;-63
2023/07/03 10:27:57;;;;;;;17.40;7.85;;;23.00;99.90;;;;;;5030702;28;20046;-62
2023/07/03 10:30:28;;;;;;;16.27;8.27;;;23.00;99.90;;;;;;5026355;28;20080;-62
2023/07/03 10:32:58;;;;;;;15.65;7.82;;;23.20;99.90;;;;;;5031001;28;20445;-62
2023/07/03 10:35:32;;;;;;;17.67;7.80;;;23.30;99.90;;;;;;5027125;28;20045;-61
2023/07/03 10:38:13;;;;;;;16.77;7.30;;;23.40;99.90;;;;;;5028684;28;20419;-62
2023/07/03 10:41:27;;;;;;;17.35;7.80;;;23.50;99.90;;;;;;5027113;28;20037;-62
2023/07/03 10:44:06;;;;;;;24.45;10.25;;;23.40;99.90;;;;;;4923673;29;20052;-61
2023/07/03 10:46:37;;;;;;;13.50;7.78;;;23.50;99.90;;;;;;4920574;29;20123;-62
2023/07/03 10:49:10;;;;;;;17.02;7.53;;;23.50;99.90;;;;;;4992988;28;20144;-62
2023/07/03 10:51:54;;;;;;;14.60;7.57;;;23.50;99.90;;;;;;5027610;28;20038;-61
2023/07/03 10:54:29;;;;;;;16.10;8.18;;;23.50;99.90;;;;;;5027383;28;20509;-61
2023/07/03 10:56:59;;;;;;;17.02;7.68;;;23.40;99.90;;;;;;5028034;28;20041;-62
2023/07/03 10:59:29;;;;;;;16.90;7.68;;;23.40;99.90;;;;;;5030224;28;20042;-62
2023/07/03 11:02:17;;;;;;;16.25;8.40;;;23.50;99.90;;;;;;5026345;28;20136;-62
2023/07/03 11:05:13;;;;;;;15.48;8.30;;;23.60;99.90;;;;;;5019791;28;20111;-61
2023/07/03 11:07:59;;;;;;;18.63;7.85;;;23.50;99.90;;;;;;5027753;28;20513;-61
2023/07/03 11:10:41;;;;;;;16.27;7.63;;;23.30;99.90;;;;;;5028191;28;20048;-64
2023/07/03 11:13:24;;;;;;;14.65;7.82;;;23.30;99.90;;;;;;5029085;28;20129;-64
2023/07/03 11:16:13;;;;;;;15.85;8.30;;;23.30;99.90;;;;;;5020972;28;20574;-64
2023/07/03 11:18:50;;;;;;;18.63;7.70;;;23.20;99.90;;;;;;5029485;28;20044;-64
2023/07/03 11:21:32;;;;;;;14.27;7.18;;;23.10;99.90;;;;;;5028317;28;20034;-63
2023/07/03 11:24:08;;;;;;;14.82;8.10;;;23.20;99.90;;;;;;5027868;28;20037;-63
2023/07/03 11:26:41;;;;;;;16.40;9.27;;;23.30;99.90;;;;;;5026080;28;20037;-63
2023/07/03 11:29:11;;;;;;;16.13;8.00;;;23.20;99.90;;;;;;5029866;28;20049;-63
2023/07/03 11:31:45;;;;;;;14.68;8.57;;;23.40;99.90;;;;;;5028677;28;20029;-63
2023/07/03 11:34:15;;;;;;;13.15;6.97;;;23.50;99.90;;;;;;5028431;28;20041;-63
2023/07/03 11:36:51;;;;;;;16.33;7.57;;;23.60;99.90;;;;;;5027600;28;20521;-63
2023/07/03 11:39:33;;;;;;;19.63;8.50;;;23.80;99.90;;;;;;5028748;28;20065;-63
2023/07/03 11:42:05;;;;;;;18.27;7.82;;;23.80;99.90;;;;;;5026904;28;20038;-63
2023/07/03 11:44:47;;;;;;;17.92;7.70;;;23.80;99.90;;;;;;5029212;28;20042;-63
2023/07/03 11:47:25;;;;;;;20.75;8.20;;;24.00;99.90;;;;;;5029663;28;20030;-63
2023/07/03 11:49:57;;;;;;;14.90;7.95;;;24.00;99.90;;;;;;5027952;28;20064;-63
2023/07/03 11:52:31;;;;;;;14.68;7.97;;;24.30;99.90;;;;;;5025462;28;20041;-63
2023/07/03 11:55:35;;;;;;;16.67;7.72;;;24.30;99.90;;;;;;5027541;28;20037;-63
2023/07/03 11:58:03;;;;;;;18.13;8.35;;;24.40;99.90;;;;;;4984645;28;20479;-63
2023/07/03 12:01:22;;;;;;;14.05;7.65;;;24.50;99.90;;;;;;5031481;28;20519;-63
2023/07/03 12:03:52;;;;;;;14.90;7.40;;;24.60;99.90;;;;;;5031960;28;20045;-63
2023/07/03 12:06:40;;;;;;;15.10;8.05;;;24.50;99.90;;;;;;5033513;28;20041;-63
2023/07/03 12:09:30;;;;;;;14.25;8.13;;;24.40;99.90;;;;;;5033912;28;20513;-63
2023/07/03 12:12:00;;;;;;;18.98;7.95;;;24.20;99.90;;;;;;5032332;28;20505;-63
2023/07/03 12:14:39;;;;;;;18.65;8.38;;;24.00;99.90;;;;;;5008281;28;20049;-63
2023/07/03 12:17:19;;;;;;;18.73;8.40;;;23.60;99.90;;;;;;5031119;28;20115;-63
2023/07/03 12:19:47;;;;;;;16.88;8.00;;;23.40;99.90;;;;;;5031272;28;20049;-63
2023/07/03 12:22:17;;;;;;;16.17;7.97;;;23.60;99.90;;;;;;5031857;28;21772;-63
2023/07/03 12:24:44;;;;;;;15.70;8.43;;;24.00;99.90;;;;;;5031879;28;20053;-64
2023/07/03 12:27:11;;;;;;;27.52;9.40;;;24.30;99.90;;;;;;5023943;28;20041;-63
2023/07/03 12:29:45;;;;;;;;;;;24.50;99.90;;;;;;5026012;28;20057;-63
2023/07/03 12:32:12;;;;;;;14.02;7.88;;;24.70;99.90;;;;;;5027408;28;19928;-63
2023/07/03 12:34:42;;;;;;;17.88;8.82;;;24.50;99.90;;;;;;5033735;28;20058;-63
2023/07/03 12:37:17;;;;;;;14.70;7.78;;;24.40;99.90;;;;;;5031236;28;20064;-64
2023/07/03 12:39:46;;;;;;;17.25;8.57;;;24.40;99.90;;;;;;5022772;28;20457;-64
2023/07/03 12:42:30;;;;;;;17.08;8.40;;;24.40;99.90;;;;;;5033164;28;20044;-64
2023/07/03 12:45:12;;;;;;;17.10;8.27;;;24.40;99.90;;;;;;5025490;28;20505;-64
2023/07/03 12:47:40;;;;;;;15.02;7.63;;;24.40;99.90;;;;;;5024517;28;20423;-64
2023/07/03 12:50:11;;;;;;;16.70;7.55;;;24.30;99.90;;;;;;5025911;28;20385;-64
2023/07/03 12:52:39;;;;;;;14.93;7.53;;;24.10;99.90;;;;;;5025387;28;20030;-64
2023/07/03 12:55:06;;;;;;;17.50;8.43;;;24.00;99.90;;;;;;5031870;28;20041;-63
2023/07/03 12:57:41;;;;;;;17.13;8.55;;;23.90;99.90;;;;;;5016980;28;20513;-63